Maitland, Australia
Current Conditions -  °F | °C
As of 10:00 PM on Monday 24 Nov 2014 (Local Time) from YPAD Reporting Station
Few Clouds Few Clouds  
Wind Chill: 59°   Ceiling: Unl
Heat Index: 59°   Visibility: 6mi
Dew Point: 45°   Wind: 9mph
Humidity: 59%   Direction: 170°S
Pressure: 30.09"   Gusts: NA
Location:  34.37°S, 137.67°E
Report Text: YPAD 241200Z 17008KT 9999 FEW045 15/07 Q1019 NOSIG
Loading
Personal Weather Stations






























Interactive Weather Map New forecast layout! Learn more

10-Day Weather Forecast

Advertisements
Track Severe Weather on mobile